Time;durP1;ratioP1;P1;durP2;ratioP2;P2;SDS_P1;SDS_P2;PMS_P1;PMS_P2;Temp;Humidity;BMP_temperature;BMP_pressure;BME280_temperature;BME280_humidity;BME280_pressure;Samples;Min_cycle;Max_cycle;Signal;HPM_P1;HPM_P2
2024/01/03 00:01:30;;;;;;;;;31.67;27.33;;;;;6.05;100.00;98302.66;6303902;20;2858664;-45
2024/01/03 00:04:00;;;;;;;;;48.33;34.00;;;;;6.15;100.00;98295.78;6305403;20;3631477;-49
2024/01/03 00:06:33;;;;;;;;;40.33;35.00;;;;;6.08;100.00;98306.00;6305870;20;3619013;-46
2024/01/03 00:09:03;;;;;;;;;33.67;32.00;;;;;6.27;100.00;98304.78;6309533;20;3598228;-47
2024/01/03 00:11:34;;;;;;;;;40.33;29.33;;;;;6.13;100.00;98303.91;6271897;20;3623220;-48
2024/01/03 00:14:27;;;;;;;;;33.00;28.00;;;;;6.11;100.00;98300.47;6305958;20;2848241;-47
2024/01/03 00:17:04;;;;;;;;;37.67;31.67;;;;;6.04;100.00;98295.63;6278146;20;3615919;-46
2024/01/03 00:19:35;;;;;;;;;29.00;27.00;;;;;6.20;100.00;98293.66;6307449;20;3589895;-47
2024/01/03 00:22:10;;;;;;;;;37.00;28.00;;;;;6.23;100.00;98293.47;6306506;20;3597170;-46
2024/01/03 00:24:48;;;;;;;;;35.67;32.67;;;;;6.01;100.00;98285.19;6308036;20;2858680;-48
2024/01/03 00:27:20;;;;;;;;;34.33;31.00;;;;;6.31;100.00;98285.81;6305519;20;3613831;-48
2024/01/03 00:29:54;;;;;;;;;37.33;30.00;;;;;6.36;100.00;98283.69;6309531;20;3599343;-47
2024/01/03 00:32:24;;;;;;;;;42.33;34.00;;;;;6.12;100.00;98282.66;6270133;20;2877465;-50
2024/01/03 00:34:54;;;;;;;;;39.00;31.67;;;;;6.14;100.00;98280.75;6304150;20;3614397;-46
2024/01/03 00:37:35;;;;;;;;;32.00;28.00;;;;;6.25;100.00;98286.22;6303773;20;2840046;-46
2024/01/03 00:40:30;;;;;;;;;33.33;29.00;;;;;6.24;100.00;98289.84;6274210;20;2849343;-46
2024/01/03 00:43:00;;;;;;;;;36.00;27.00;;;;;6.32;100.00;98290.19;6307748;20;2869176;-46
2024/01/03 00:45:28;;;;;;;;;32.00;27.00;;;;;6.32;100.00;98279.53;6303667;20;2846119;-46
2024/01/03 00:47:57;;;;;;;;;31.00;28.00;;;;;6.44;100.00;98271.66;6276787;20;2850291;-46
2024/01/03 00:50:27;;;;;;;;;32.67;28.67;;;;;6.43;100.00;98277.97;6272113;20;2854666;-49
2024/01/03 00:52:57;;;;;;;;;33.33;28.00;;;;;6.42;100.00;98287.75;6306608;20;2868171;-46
2024/01/03 00:55:25;;;;;;;;;33.00;25.50;;;;;6.58;100.00;98287.56;6305038;20;2860772;-46
2024/01/03 00:57:55;;;;;;;;;22.00;19.00;;;;;6.51;100.00;98303.16;6274815;20;2498265;-46
2024/01/03 01:00:23;;;;;;;;;26.00;26.00;;;;;6.45;100.00;98308.03;6272186;20;2500341;-46
2024/01/03 01:02:52;;;;;;;;;28.50;23.50;;;;;6.61;100.00;98292.72;6277297;20;2842991;-46
2024/01/03 01:05:21;;;;;;;;;30.00;26.00;;;;;6.57;100.00;98302.72;6271843;20;2842073;-49
2024/01/03 01:07:50;;;;;;;;;31.00;28.00;;;;;6.68;100.00;98310.00;6276753;20;2849262;-48
2024/01/03 01:10:19;;;;;;;;;29.50;26.00;;;;;6.46;100.00;98309.75;6276264;20;2848197;-48
2024/01/03 01:12:47;;;;;;;;;26.00;25.00;;;;;6.53;100.00;98305.69;6271323;20;2845232;-50
2024/01/03 01:15:15;;;;;;;;;25.00;22.00;;;;;6.66;100.00;98297.72;6271490;20;2500339;-52
2024/01/03 01:17:44;;;;;;;;;24.50;22.50;;;;;6.69;100.00;98303.72;6271654;20;2850333;-47
2024/01/03 01:20:12;;;;;;;;;21.00;21.00;;;;;6.66;100.00;98295.06;6274720;20;2500291;-50
2024/01/03 01:22:41;;;;;;;;;25.50;22.00;;;;;6.42;100.00;98297.56;6274723;20;2846213;-47
2024/01/03 01:25:09;;;;;;;;;28.00;25.00;;;;;6.57;100.00;98280.53;6271812;20;2498230;-47
2024/01/03 01:27:38;;;;;;;;;30.00;23.00;;;;;6.55;100.00;98269.13;6275087;20;2848248;-48
2024/01/03 01:30:08;;;;;;;;;23.33;21.00;;;;;6.43;100.00;98277.97;6274433;20;3577370;-46
2024/01/03 01:32:36;;;;;;;;;24.50;21.00;;;;;6.48;100.00;98282.03;6277949;20;2834859;-48
2024/01/03 01:35:04;;;;;;;;;19.00;17.00;;;;;6.33;100.00;98289.22;6275433;20;2835697;-47
2024/01/03 01:37:31;;;;;;;;;23.00;20.00;;;;;6.49;100.00;98280.22;6278393;20;2844031;-46
2024/01/03 01:40:00;;;;;;;;;19.67;16.67;;;;;6.45;100.00;98294.69;6276407;20;3551370;-47
2024/01/03 01:42:30;;;;;;;;;21.50;20.50;;;;;6.52;100.00;98293.31;6271330;20;2500414;-46
2024/01/03 01:44:58;;;;;;;;;21.50;18.50;;;;;6.55;100.00;98282.44;6269595;20;2498191;-46
2024/01/03 01:47:27;;;;;;;;;29.50;21.50;;;;;6.64;100.00;98284.50;6274469;20;2859724;-46
2024/01/03 01:49:56;;;;;;;;;13.33;13.33;;;;;6.62;100.00;98288.22;6273537;20;3532575;-48
2024/01/03 01:52:24;;;;;;;;;14.00;14.00;;;;;6.80;100.00;98293.16;6306032;20;2729586;-47
2024/01/03 01:54:52;;;;;;;;;20.00;15.00;;;;;6.76;100.00;98278.31;6275186;20;2816978;-45
2024/01/03 01:57:20;;;;;;;;;23.00;20.00;;;;;6.83;100.00;98268.09;6275966;20;2833616;-46
2024/01/03 01:59:48;;;;;;;;;20.00;15.50;;;;;6.58;100.00;98266.22;6273854;20;2823230;-46
2024/01/03 02:02:16;;;;;;;;;20.50;17.00;;;;;6.74;100.00;98271.38;6272203;20;2492043;-49
2024/01/03 02:04:45;;;;;;;;;15.50;14.50;;;;;6.78;100.00;98268.41;6271981;20;2797285;-45
2024/01/03 02:07:13;;;;;;;;;18.00;16.00;;;;;6.60;100.00;98269.66;6275432;20;2814838;-50
2024/01/03 02:09:42;;;;;;;;;14.00;12.00;;;;;6.78;100.00;98268.41;6277428;20;2787783;-49
2024/01/03 02:12:10;;;;;;;;;15.00;15.00;;;;;6.82;100.00;98258.38;6278231;20;2806534;-47
2024/01/03 02:14:37;;;;;;;;;20.00;15.00;;;;;6.80;100.00;98247.81;6271955;20;2821113;-46
2024/01/03 02:17:05;;;;;;;;;22.00;16.00;;;;;6.84;100.00;98245.78;6279428;20;2810754;-49
2024/01/03 02:19:34;;;;;;;;;18.67;16.00;;;;;6.70;100.00;98261.88;6272682;20;3551371;-47
2024/01/03 02:22:02;;;;;;;;;28.00;23.00;;;;;6.85;100.00;98255.50;6305684;20;2850256;-46
2024/01/03 02:24:30;;;;;;;;;16.00;14.00;;;;;6.84;100.00;98268.94;6279801;20;2818013;-47
2024/01/03 02:26:59;;;;;;;;;22.00;17.00;;;;;6.60;100.00;98261.66;6281118;20;3563953;-47
2024/01/03 02:29:27;;;;;;;;;16.67;15.00;;;;;6.80;100.00;98254.97;6274903;20;3538832;-46
2024/01/03 02:31:55;;;;;;;;;15.00;15.00;;;;;6.88;100.00;98251.78;6313604;20;2804486;-45
2024/01/03 02:34:26;;;;;;;;;14.60;14.00;;;;;6.62;100.00;98234.91;6302761;20;2786836;-45
2024/01/03 02:36:56;;;;;;;;;20.67;10.33;;;;;6.72;100.00;98223.50;6279512;20;3549291;-47
2024/01/03 02:39:24;;;;;;;;;10.50;10.00;;;;;6.73;100.00;98217.19;6307806;20;2779420;-46
2024/01/03 02:41:52;;;;;;;;;16.67;13.67;;;;;6.52;100.00;98218.66;6281827;20;2823210;-48
2024/01/03 02:44:23;;;;;;;;;22.50;16.00;;;;;6.68;100.00;98229.13;6310108;20;2818007;-47
2024/01/03 02:46:51;;;;;;;;;15.00;15.00;;;;;6.71;100.00;98224.44;6279823;20;2813990;-47
2024/01/03 02:49:19;;;;;;;;;16.00;11.00;;;;;6.51;100.00;98222.31;6279817;20;2609669;-46
2024/01/03 02:51:49;;;;;;;;;17.67;15.00;;;;;6.73;100.00;98217.19;6276268;20;3537775;-48
2024/01/03 02:54:18;;;;;;;;;16.33;15.00;;;;;6.66;100.00;98199.91;6275381;20;3545107;-49
2024/01/03 02:56:46;;;;;;;;;15.00;10.00;;;;;6.57;100.00;98212.06;6309091;20;2785728;-48
2024/01/03 02:59:14;;;;;;;;;18.67;14.33;;;;;6.46;100.00;98187.97;6279405;20;3532573;-48
2024/01/03 03:01:43;;;;;;;;;15.00;14.00;;;;;6.53;100.00;98188.38;6309921;20;2797154;-47
2024/01/03 03:04:12;;;;;;;;;14.33;13.00;;;;;6.48;100.00;98169.19;6281028;20;3535037;-46
2024/01/03 03:06:39;;;;;;;;;14.00;14.00;;;;;6.63;100.00;98178.78;6309175;20;2799298;-48
2024/01/03 03:09:08;;;;;;;;;16.67;15.00;;;;;6.60;100.00;98171.84;6278110;20;2820170;-47
2024/01/03 03:11:46;;;;;;;;;15.50;14.00;;;;;6.65;100.00;98176.88;6311591;20;2794092;-46
2024/01/03 03:14:15;;;;;;;;;16.00;15.00;;;;;6.68;100.00;98170.47;6282417;20;2800340;-49
2024/01/03 03:16:45;;;;;;;;;10.00;9.80;;;;;6.50;100.00;98167.25;6303399;20;2767833;-49
2024/01/03 03:19:13;;;;;;;;;9.00;8.00;;;;;6.65;100.00;98179.53;6278035;20;2753492;-52
2024/01/03 03:21:42;;;;;;;;;11.33;11.33;;;;;6.57;100.00;98152.53;6276899;20;2799306;-47
2024/01/03 03:24:10;;;;;;;;;19.00;15.50;;;;;6.41;100.00;98141.25;6311744;20;2827397;-47
2024/01/03 03:26:39;;;;;;;;;17.00;14.80;;;;;6.59;100.00;98150.63;6299383;20;2803521;-48
2024/01/03 03:29:07;;;;;;;;;14.00;14.00;;;;;6.64;100.00;98148.50;6279520;20;2785717;-47
2024/01/03 03:31:36;;;;;;;;;14.00;14.00;;;;;6.74;100.00;98154.91;6277972;20;2808709;-49
2024/01/03 03:34:05;;;;;;;;;14.67;14.67;;;;;6.48;100.00;98163.88;6306146;20;3548263;-48
2024/01/03 03:36:33;;;;;;;;;19.33;14.00;;;;;6.53;100.00;98177.69;6307863;20;3545575;-47
2024/01/03 03:39:01;;;;;;;;;16.00;14.50;;;;;6.58;100.00;98178.25;6308981;20;2803538;-49
2024/01/03 03:41:30;;;;;;;;;15.00;13.33;;;;;6.55;100.00;98184.63;6277522;20;3539937;-50
2024/01/03 03:43:59;;;;;;;;;19.33;14.67;;;;;6.69;100.00;98193.50;6308652;20;3570105;-49
2024/01/03 03:46:27;;;;;;;;;18.00;15.33;;;;;6.52;100.00;98192.84;6277363;20;3563959;-50
2024/01/03 03:48:55;;;;;;;;;19.00;16.50;;;;;6.68;100.00;98200.66;6308228;20;2815993;-48
2024/01/03 03:51:24;;;;;;;;;15.00;15.00;;;;;6.55;100.00;98197.97;6277613;20;3537788;-48
2024/01/03 03:53:52;;;;;;;;;18.00;14.50;;;;;6.50;100.00;98185.91;6306178;20;2821087;-46
2024/01/03 03:56:23;;;;;;;;;15.67;14.33;;;;;6.73;100.00;98169.16;6273778;20;3527455;-49
2024/01/03 03:58:52;;;;;;;;;12.67;12.67;;;;;6.36;100.00;98182.41;6307420;20;3540988;-46
2024/01/03 04:01:20;;;;;;;;;14.00;10.00;;;;;6.49;100.00;98182.41;6273986;20;2782586;-47
2024/01/03 04:03:50;;;;;;;;;16.00;14.00;;;;;6.52;100.00;98192.00;6278635;20;3542988;-48
2024/01/03 04:06:18;;;;;;;;;16.00;14.50;;;;;6.38;100.00;98185.81;6311973;20;2816983;-47
2024/01/03 04:08:48;;;;;;;;;14.50;11.00;;;;;6.31;100.00;98176.53;6274847;20;2792122;-47
2024/01/03 04:11:18;;;;;;;;;13.00;11.67;;;;;6.40;100.00;98177.72;6277341;20;2790981;-48
2024/01/03 04:13:47;;;;;;;;;17.67;14.33;;;;;6.65;100.00;98182.19;6308098;20;2810784;-46
2024/01/03 04:16:15;;;;;;;;;17.33;14.00;;;;;6.54;100.00;98180.28;6306209;20;3540929;-46
2024/01/03 04:18:45;;;;;;;;;16.00;15.00;;;;;6.51;100.00;98190.31;6305618;20;3545059;-49
2024/01/03 04:21:13;;;;;;;;;11.00;8.50;;;;;6.57;100.00;98196.06;6306754;20;2769055;-46
2024/01/03 04:23:42;;;;;;;;;24.33;16.33;;;;;6.66;100.00;98199.91;6278349;20;3576346;-47
2024/01/03 04:26:10;;;;;;;;;17.33;16.33;;;;;6.73;100.00;98206.50;6308699;20;2817052;-46
2024/01/03 04:28:38;;;;;;;;;13.00;11.00;;;;;6.71;100.00;98221.75;6310001;20;2790079;-47
2024/01/03 04:31:09;;;;;;;;;20.33;15.50;;;;;6.65;100.00;98218.69;6302449;20;2823430;-46
2024/01/03 04:33:39;;;;;;;;;13.00;12.60;;;;;6.57;100.00;98214.72;6333025;20;2788872;-46
2024/01/03 04:36:11;;;;;;;;;14.67;13.33;;;;;6.57;100.00;98216.53;6278044;20;2794096;-46
2024/01/03 04:38:38;;;;;;;;;15.50;13.50;;;;;6.69;100.00;98215.72;6308898;20;2795102;-46
2024/01/03 04:41:06;;;;;;;;;13.00;11.50;;;;;6.66;100.00;98226.59;6276159;20;2792013;-47
2024/01/03 04:43:35;;;;;;;;;20.67;14.67;;;;;6.74;100.00;98236.69;6274478;20;3554539;-49
2024/01/03 04:46:03;;;;;;;;;15.50;11.00;;;;;6.74;100.00;98229.56;6305767;20;2796192;-45
2024/01/03 04:48:32;;;;;;;;;15.00;12.33;;;;;6.78;100.00;98225.72;6277720;20;2789952;-44
2024/01/03 04:51:00;;;;;;;;;11.00;9.00;;;;;6.85;100.00;98219.97;6306294;20;2771236;-46
2024/01/03 04:53:29;;;;;;;;;27.00;23.00;;;;;6.67;100.00;98219.44;6275174;20;2842019;-46
2024/01/03 04:55:58;;;;;;;;;53.33;41.67;;;;;6.68;100.00;98219.31;6273562;20;2866945;-45
2024/01/03 04:58:27;;;;;;;;;18.67;11.67;;;;;6.71;100.00;98207.56;6305324;20;3543033;-44
2024/01/03 05:00:58;;;;;;;;;13.43;9.57;;;;;7.00;100.00;98209.06;6347859;20;1815027;-45
2024/01/03 05:03:28;;;;;;;;;12.40;9.60;;;;;6.84;100.00;98208.44;6330304;20;2780561;-48
2024/01/03 05:05:56;;;;;;;;;18.00;14.00;;;;;6.84;100.00;98194.25;6272946;20;3549388;-47
2024/01/03 05:08:24;;;;;;;;;15.50;14.00;;;;;6.85;100.00;98190.63;6310970;20;2804466;-47
2024/01/03 05:10:52;;;;;;;;;13.00;13.00;;;;;6.66;100.00;98177.72;6277534;20;2788813;-47
2024/01/03 05:13:21;;;;;;;;;14.67;13.00;;;;;6.74;100.00;98181.56;6271711;20;3536743;-48
2024/01/03 05:15:51;;;;;;;;;16.00;16.00;;;;;6.69;100.00;98175.69;6328246;20;2824370;-48
2024/01/03 05:18:19;;;;;;;;;11.00;10.00;;;;;6.78;100.00;98183.03;6306835;20;2783732;-46
2024/01/03 05:20:47;;;;;;;;;17.00;14.00;;;;;6.66;100.00;98181.25;6275416;20;2811847;-44
2024/01/03 05:23:17;;;;;;;;;14.60;13.40;;;;;6.64;100.00;98177.84;6301213;20;2813852;-45
2024/01/03 05:25:45;;;;;;;;;13.00;12.00;;;;;6.73;100.00;98165.66;6274651;20;2790934;-47
2024/01/03 05:28:14;;;;;;;;;29.50;28.00;;;;;6.55;100.00;98157.13;6274649;20;2852349;-46
2024/01/03 05:30:41;;;;;;;;;14.00;9.00;;;;;6.55;100.00;98165.13;6273415;20;2774266;-46
2024/01/03 05:33:10;;;;;;;;;14.33;14.33;;;;;6.47;100.00;98164.81;6273573;20;2795114;-46
2024/01/03 05:35:39;;;;;;;;;14.00;14.00;;;;;6.59;100.00;98174.63;6305176;20;2809797;-47
2024/01/03 05:38:07;;;;;;;;;16.50;15.00;;;;;6.71;100.00;98197.75;6309004;20;2822176;-45
2024/01/03 05:40:35;;;;;;;;;13.00;11.00;;;;;6.74;100.00;98191.34;6275254;20;2783642;-47
2024/01/03 05:43:04;;;;;;;;;12.33;12.33;;;;;6.61;100.00;98196.72;6274994;20;2792023;-44
2024/01/03 05:45:32;;;;;;;;;16.00;10.00;;;;;6.68;100.00;98192.63;6304470;20;2805609;-46
2024/01/03 05:48:00;;;;;;;;;14.50;13.00;;;;;6.60;100.00;98184.31;6302141;20;2789909;-47
2024/01/03 05:50:28;;;;;;;;;19.00;13.00;;;;;6.81;100.00;98193.50;6273573;20;2700338;-46
2024/01/03 05:52:57;;;;;;;;;14.67;14.67;;;;;6.85;100.00;98185.28;6272884;20;3550245;-46
2024/01/03 05:55:26;;;;;;;;;11.00;9.50;;;;;6.78;100.00;98187.53;6302514;20;2779438;-46
2024/01/03 05:57:56;;;;;;;;;14.80;13.60;;;;;6.79;100.00;98192.78;6299535;20;2797257;-47
2024/01/03 06:00:24;;;;;;;;;14.00;11.50;;;;;6.85;100.00;98193.28;6276396;20;2796490;-46
2024/01/03 06:02:53;;;;;;;;;10.80;10.80;;;;;6.94;100.00;98208.66;6302287;20;2784669;-50
2024/01/03 06:05:22;;;;;;;;;10.00;10.00;;;;;6.86;100.00;98205.66;6277498;20;2791978;-48
2024/01/03 06:07:50;;;;;;;;;9.00;9.00;;;;;6.88;100.00;98209.94;6308951;20;2737911;-48
2024/01/03 06:10:18;;;;;;;;;14.00;13.00;;;;;7.09;100.00;98218.25;6279742;20;2795091;-50
2024/01/03 06:12:45;;;;;;;;;14.00;10.50;;;;;7.15;100.00;98219.63;6280439;20;2787183;-44
2024/01/03 06:15:13;;;;;;;;;21.00;16.50;;;;;6.92;100.00;98216.75;6279791;20;2825262;-45
2024/01/03 06:17:43;;;;;;;;;11.60;11.60;;;;;7.15;100.00;98217.78;6300649;20;2791934;-45
2024/01/03 06:20:12;;;;;;;;;26.00;21.50;;;;;7.12;100.00;98218.00;6279775;20;2850251;-45
2024/01/03 06:22:40;;;;;;;;;21.00;17.00;;;;;7.18;100.00;98225.56;6278037;20;2500397;-48
2024/01/03 06:25:08;;;;;;;;;16.50;15.00;;;;;7.13;100.00;98230.38;6312170;20;2809668;-45
2024/01/03 06:27:37;;;;;;;;;13.33;12.67;;;;;6.93;100.00;98226.47;6277218;20;2804488;-48
2024/01/03 06:30:06;;;;;;;;;19.00;10.00;;;;;7.10;100.00;98235.09;6312196;20;2814872;-45
2024/01/03 06:32:34;;;;;;;;;11.00;11.00;;;;;7.17;100.00;98245.22;6278514;20;2792018;-47
2024/01/03 06:35:05;;;;;;;;;12.80;10.80;;;;;7.23;100.00;98238.59;6303437;20;2800239;-45
2024/01/03 06:37:32;;;;;;;;;11.50;11.50;;;;;7.14;100.00;98236.59;6280392;20;2791993;-47
2024/01/03 06:40:00;;;;;;;;;12.50;10.00;;;;;7.26;100.00;98231.22;6281592;20;2789910;-45
2024/01/03 06:42:28;;;;;;;;;13.00;11.00;;;;;7.23;100.00;98236.78;6279356;20;2790491;-44
2024/01/03 06:44:56;;;;;;;;;11.50;9.50;;;;;7.19;100.00;98235.31;6276894;20;2778420;-45
2024/01/03 06:47:24;;;;;;;;;18.00;15.50;;;;;7.32;100.00;98234.41;6279143;20;2500282;-47
2024/01/03 06:49:53;;;;;;;;;13.80;11.80;;;;;7.22;100.00;98227.06;6301686;20;2792030;-46
2024/01/03 06:52:25;;;;;;;;;10.71;10.43;;;;;7.24;100.00;98229.63;6321881;20;1800448;-45
2024/01/03 06:54:54;;;;;;;;;10.00;9.00;;;;;7.27;100.00;98221.41;6305941;20;2751331;-44
2024/01/03 06:57:22;;;;;;;;;15.00;10.00;;;;;7.22;100.00;98224.41;6281267;20;2796124;-45
2024/01/03 06:59:50;;;;;;;;;9.00;8.00;;;;;7.14;100.00;98221.44;6310186;20;2749294;-46
2024/01/03 07:02:18;;;;;;;;;14.00;10.00;;;;;7.18;100.00;98233.59;6280074;20;2794009;-51
2024/01/03 07:04:46;;;;;;;;;14.00;10.00;;;;;7.09;100.00;98220.91;6277889;20;2780734;-48
2024/01/03 07:07:16;;;;;;;;;15.50;11.50;;;;;7.18;100.00;98232.72;6281050;20;2790859;-48
2024/01/03 07:09:46;;;;;;;;;10.40;9.00;;;;;7.09;100.00;98231.59;6303056;20;2759771;-46
2024/01/03 07:12:21;;;;;;;;;8.67;6.17;;;;;7.20;100.00;98226.31;6353733;20;1810746;-45
2024/01/03 07:14:49;;;;;;;;;14.00;9.50;;;;;7.11;100.00;98235.00;6279973;20;2782280;-45
2024/01/03 07:17:17;;;;;;;;;10.50;8.00;;;;;7.17;100.00;98237.22;6282859;20;2762815;-48
2024/01/03 07:19:44;;;;;;;;;8.00;8.00;;;;;7.08;100.00;98226.34;6282629;20;2737174;-48
2024/01/03 07:22:12;;;;;;;;;9.00;8.00;;;;;7.09;100.00;98236.91;6309854;20;2730471;-47
2024/01/03 07:24:41;;;;;;;;;8.75;7.75;;;;;7.22;100.00;98245.75;6296601;20;1809741;-45
2024/01/03 07:27:10;;;;;;;;;15.00;8.80;;;;;7.30;100.00;98247.88;6333934;20;2760726;-46
2024/01/03 07:29:38;;;;;;;;;9.00;8.00;;;;;7.34;100.00;98240.50;6276133;20;2736909;-45
2024/01/03 07:32:08;;;;;;;;;12.80;10.80;;;;;7.38;100.00;98252.69;6304620;20;2789944;-48
2024/01/03 07:34:38;;;;;;;;;10.40;8.20;;;;;7.34;100.00;98252.03;6305741;20;2765885;-47
2024/01/03 07:37:05;;;;;;;;;11.50;10.50;;;;;7.43;100.00;98245.19;6275717;20;2794070;-47
2024/01/03 07:39:33;;;;;;;;;8.00;4.00;;;;;7.42;100.00;98241.66;6281506;20;2747166;-47
2024/01/03 07:42:06;;;;;;;;;8.71;5.43;;;;;7.61;100.00;98241.19;6321598;20;1795815;-47
2024/01/03 07:44:41;;;;;;;;;10.20;8.80;;;;;7.62;100.00;98236.69;6333682;20;2752463;-47
2024/01/03 07:47:11;;;;;;;;;8.75;5.00;;;;;7.61;100.00;98230.50;6327434;20;1822339;-49
2024/01/03 07:49:39;;;;;;;;;11.00;9.00;;;;;7.66;100.00;98222.13;6309031;20;2769042;-49
2024/01/03 07:52:07;;;;;;;;;7.50;5.00;;;;;7.62;100.00;98234.88;6283622;20;2748227;-46
2024/01/03 07:54:35;;;;;;;;;8.50;7.00;;;;;7.78;100.00;98231.09;6276415;20;2743026;-50
2024/01/03 07:57:04;;;;;;;;;6.00;5.00;;;;;7.74;100.00;98241.16;6313087;20;2747151;-46
2024/01/03 07:59:33;;;;;;;;;2.00;2.00;;;;;7.66;100.00;98240.84;6280209;20;2755885;-47
2024/01/03 08:02:01;;;;;;;;;8.00;7.00;;;;;7.79;100.00;98248.81;6280278;20;2728513;-47
2024/01/03 08:04:28;;;;;;;;;5.50;5.50;;;;;7.86;100.00;98248.25;6311130;20;2733623;-48
2024/01/03 08:06:56;;;;;;;;;8.00;8.00;;;;;7.64;100.00;98242.78;6282946;20;2742082;-46
2024/01/03 08:09:27;;;;;;;;;7.50;6.00;;;;;8.14;100.00;98241.72;6351660;20;1797659;-47
2024/01/03 08:11:54;;;;;;;;;5.50;5.50;;;;;8.39;100.00;98253.25;6280718;20;2743037;-49
2024/01/03 08:14:23;;;;;;;;;9.00;9.00;;;;;8.46;100.00;98245.66;6311701;20;2737784;-46
2024/01/03 08:16:51;;;;;;;;;3.00;3.00;;;;;8.41;100.00;98247.81;6280451;20;2733792;-49
2024/01/03 08:19:19;;;;;;;;;4.50;4.50;;;;;8.56;100.00;98254.69;6278152;20;2747208;-46
2024/01/03 08:21:47;;;;;;;;;6.00;6.00;;;;;8.49;100.00;98258.78;6279009;20;2736832;-46
2024/01/03 08:24:15;;;;;;;;;5.00;4.00;;;;;8.67;100.00;98256.53;6279224;20;2743131;-47
2024/01/03 08:26:45;;;;;;;;;8.50;6.00;;;;;8.81;100.00;98264.34;6282343;20;2732701;-46
2024/01/03 08:29:14;;;;;;;;;6.00;5.00;;;;;9.00;100.00;98259.28;6311494;20;2748174;-45
2024/01/03 08:31:42;;;;;;;;;6.50;6.50;;;;;9.05;100.00;98271.44;6278612;20;2741988;-47
2024/01/03 08:34:09;;;;;;;;;7.00;6.50;;;;;9.06;100.00;98263.28;6279923;20;2732732;-46
2024/01/03 08:36:41;;;;;;;;;6.75;5.00;;;;;9.01;100.00;98271.66;6328945;20;1804404;-49
2024/01/03 08:39:09;;;;;;;;;4.00;4.00;;;;;9.22;100.00;98265.63;6311140;20;2741963;-46
2024/01/03 08:41:37;;;;;;;;;9.00;5.50;;;;;9.41;100.00;98273.03;6279593;20;2743079;-48
2024/01/03 08:44:06;;;;;;;;;6.50;5.50;;;;;9.20;100.00;98278.25;6275257;20;2745168;-51
2024/01/03 08:46:42;;;;;;;;;5.00;4.50;;;;;9.44;100.00;98289.72;6279065;20;2747137;-49
2024/01/03 08:49:12;;;;;;;;;6.00;6.00;;;;;9.14;100.00;98292.16;6278517;20;2738986;-45
2024/01/03 08:51:43;;;;;;;;;4.50;4.00;;;;;9.05;100.00;98301.72;6279422;20;2743037;-47
2024/01/03 08:54:11;;;;;;;;;6.00;4.00;;;;;9.18;100.00;98301.63;6278132;20;2741055;-45
2024/01/03 08:56:39;;;;;;;;;6.50;5.50;;;;;9.39;100.00;98291.06;6281140;20;2739868;-49
2024/01/03 08:59:09;;;;;;;;;6.00;6.00;;;;;9.48;100.00;98298.38;6293750;20;1810789;-47
2024/01/03 09:01:37;;;;;;;;;7.50;5.25;;;;;9.48;100.00;98302.84;6324726;20;1807543;-46
2024/01/03 09:04:05;;;;;;;;;5.50;5.50;;;;;9.40;100.00;98304.34;6310089;20;2748309;-46
2024/01/03 09:06:35;;;;;;;;;7.00;5.00;;;;;9.29;100.00;98296.28;6280718;20;2742984;-46
2024/01/03 09:09:04;;;;;;;;;6.00;4.50;;;;;9.30;100.00;98302.50;6281454;20;2748203;-46
2024/01/03 09:11:31;;;;;;;;;5.00;5.00;;;;;9.26;100.00;98312.59;6281698;20;2740976;-46
2024/01/03 09:13:59;;;;;;;;;6.00;5.00;;;;;9.45;100.00;98315.53;6280522;20;2748203;-47
2024/01/03 09:16:30;;;;;;;;;6.25;6.25;;;;;9.58;100.00;98311.88;6295368;20;1802505;-45
2024/01/03 09:18:58;;;;;;;;;9.00;6.00;;;;;9.56;100.00;98303.13;6310634;20;2743999;-46
2024/01/03 09:21:27;;;;;;;;;6.50;6.50;;;;;9.58;100.00;98302.00;6280546;20;2748639;-44
2024/01/03 09:23:54;;;;;;;;;5.50;5.50;;;;;9.58;100.00;98293.97;6267488;20;2748197;-47
2024/01/03 09:26:23;;;;;;;;;4.00;4.00;;;;;9.66;100.00;98301.38;6275617;20;2750306;-46
2024/01/03 09:28:53;;;;;;;;;5.00;3.00;;;;;9.58;100.00;98303.84;6294227;20;1808716;-44
2024/01/03 09:31:20;;;;;;;;;4.50;3.00;;;;;9.66;100.00;98288.00;6309913;20;2753458;-45
2024/01/03 09:33:48;;;;;;;;;3.00;3.00;;;;;9.59;100.00;98289.47;6278801;20;2754436;-45
2024/01/03 09:36:21;;;;;;;;;4.50;3.00;;;;;9.41;100.00;98298.00;6295546;20;1806681;-46
2024/01/03 09:38:54;;;;;;;;;6.00;6.00;;;;;9.81;100.00;98292.13;6307580;20;2746128;-45
2024/01/03 09:41:23;;;;;;;;;6.00;6.00;;;;;10.01;100.00;98281.63;6279356;20;2744057;-44
2024/01/03 09:43:52;;;;;;;;;5.50;5.00;;;;;10.01;100.00;98292.34;6276147;20;2742131;-44
2024/01/03 09:46:21;;;;;;;;;5.00;5.00;;;;;9.86;100.00;98291.75;6280474;20;2745066;-45
2024/01/03 09:48:49;;;;;;;;;6.00;5.00;;;;;9.76;100.00;98288.97;6279305;20;2742976;-45
2024/01/03 09:51:19;;;;;;;;;5.00;5.00;;;;;9.67;100.00;98295.06;6275263;20;2742990;-44
2024/01/03 09:53:54;;;;;;;;;4.00;4.00;;;;;9.64;100.00;98289.97;6278682;20;2747318;-44
2024/01/03 09:56:23;;;;;;;;;6.00;6.00;;;;;9.66;100.00;98298.72;6277944;20;2737827;-46
2024/01/03 09:58:51;;;;;;;;;5.00;5.00;;;;;9.73;100.00;98294.56;6275781;20;2747175;-44
2024/01/03 10:01:18;;;;;;;;;6.00;4.00;;;;;9.87;100.00;98307.72;6275236;20;2746086;-46
2024/01/03 10:03:46;;;;;;;;;6.00;5.00;;;;;9.72;100.00;98303.59;6277138;20;2748199;-45
2024/01/03 10:06:14;;;;;;;;;9.00;5.00;;;;;9.94;100.00;98300.03;6278940;20;2748274;-47
2024/01/03 10:09:00;;;;;;;;;6.00;4.00;;;;;10.12;100.00;98300.34;6274357;20;2750382;-47
2024/01/03 10:11:29;;;;;;;;;6.50;6.00;;;;;10.02;100.00;98294.03;6279386;20;2749377;-47
2024/01/03 10:14:24;;;;;;;;;5.00;5.00;;;;;10.17;100.00;98295.47;6275141;20;2748183;-45
2024/01/03 10:16:52;;;;;;;;;7.00;6.00;;;;;10.19;100.00;98301.56;6277127;20;2730569;-45
2024/01/03 10:19:26;;;;;;;;;5.80;5.80;;;;;10.04;100.00;98292.09;6301292;20;2745163;-44
2024/01/03 10:21:55;;;;;;;;;4.00;4.00;;;;;9.94;100.00;98288.44;6308111;20;2753549;-47
2024/01/03 10:24:26;;;;;;;;;5.00;5.00;;;;;10.11;100.00;98293.31;6276478;20;2747205;-46
2024/01/03 10:26:55;;;;;;;;;5.50;5.50;;;;;10.14;100.00;98282.31;6280931;20;2750309;-45
2024/01/03 10:29:23;;;;;;;;;4.50;4.50;;;;;10.47;100.00;98293.94;6277588;20;2739902;-43
2024/01/03 10:31:51;;;;;;;;;5.00;5.00;;;;;10.84;100.00;98280.09;6277513;20;2738843;-45
2024/01/03 10:34:24;;;;;;;;;5.00;4.00;;;;;10.61;100.00;98279.34;6276803;20;2741987;-45
2024/01/03 10:36:55;;;;;;;;;4.00;4.00;;;;;10.60;100.00;98283.03;6278707;20;2752395;-43
2024/01/03 10:39:27;;;;;;;;;4.00;4.00;;;;;10.55;100.00;98286.09;6275257;20;2756535;-45
2024/01/03 10:41:57;;;;;;;;;11.00;6.50;;;;;10.77;100.00;98280.63;6294103;20;1821205;-43
2024/01/03 10:44:26;;;;;;;;;4.50;4.00;;;;;10.41;100.00;98283.72;6305967;20;2756615;-43
2024/01/03 10:46:55;;;;;;;;;5.00;3.00;;;;;10.29;100.00;98282.91;6281287;20;2747273;-44
2024/01/03 10:49:23;;;;;;;;;4.00;3.00;;;;;10.28;100.00;98282.03;6279324;20;2749270;-44
2024/01/03 10:52:02;;;;;;;;;6.00;6.00;;;;;10.81;100.00;98281.19;6278414;20;2748275;-44
2024/01/03 10:54:43;;;;;;;;;7.00;5.00;;;;;10.73;100.00;98279.16;6277540;20;2748282;-45
2024/01/03 10:57:12;;;;;;;;;5.00;4.50;;;;;10.66;100.00;98269.91;6280788;20;2754447;-43
2024/01/03 10:59:57;;;;;;;;;6.00;5.00;;;;;10.74;100.00;98275.50;6276979;20;2748199;-44
2024/01/03 11:02:37;;;;;;;;;6.00;5.00;;;;;11.27;100.00;98271.00;6277730;20;2747197;-43
2024/01/03 11:05:28;;;;;;;;;17.00;9.50;;;;;11.02;100.00;98267.75;6276430;20;2798406;-45
2024/01/03 11:08:08;;;;;;;;;5.50;5.50;;;;;11.07;100.00;98265.53;6280239;20;2742002;-46
2024/01/03 11:10:53;;;;;;;;;6.00;5.00;;;;;11.26;100.00;98259.41;6280027;20;2745098;-44
2024/01/03 11:13:31;;;;;;;;;5.57;4.14;;;;;11.27;99.99;98254.88;6318377;20;1792767;-46
2024/01/03 11:16:02;;;;;;;;;3.50;3.50;;;;;11.48;99.23;98263.78;6310548;20;2751288;-44
2024/01/03 11:18:42;;;;;;;;;4.00;4.00;;;;;11.70;97.25;98243.03;6281388;20;2756597;-45